createdAt,value
2022-07-29T00:02:10.271Z,44.30
2022-07-29T00:04:37.179Z,43.90
2022-07-29T00:07:04.392Z,43.90
2022-07-29T00:09:31.635Z,43.80
2022-07-29T00:11:59.561Z,44.50
2022-07-29T00:14:26.228Z,43.80
2022-07-29T00:16:54.213Z,43.90
2022-07-29T00:19:20.931Z,44.10
2022-07-29T00:21:47.878Z,44.30
2022-07-29T00:24:14.767Z,44.30
2022-07-29T00:26:41.604Z,44.40
2022-07-29T00:31:55.018Z,44.50
2022-07-29T00:34:40.412Z,44.60
2022-07-29T00:37:07.866Z,44.70
2022-07-29T00:39:34.705Z,44.80
2022-07-29T00:42:03.286Z,44.90
2022-07-29T00:44:29.935Z,44.80
2022-07-29T00:46:56.591Z,44.90
2022-07-29T00:49:23.312Z,44.90
2022-07-29T00:51:50.048Z,45.00
2022-07-29T00:54:17.130Z,45.10
2022-07-29T00:56:43.986Z,45.20
2022-07-29T00:59:10.617Z,45.10
2022-07-29T01:01:37.319Z,45.00
2022-07-29T01:04:04.178Z,44.70
2022-07-29T01:06:30.835Z,44.40
2022-07-29T01:08:57.538Z,43.90
2022-07-29T01:11:24.212Z,44.10
2022-07-29T01:13:50.884Z,44.20
2022-07-29T01:16:28.614Z,44.40
2022-07-29T01:18:56.599Z,45.00
2022-07-29T01:21:42.415Z,44.50
2022-07-29T01:24:24.419Z,44.60
2022-07-29T01:26:54.286Z,44.70
2022-07-29T01:29:38.947Z,44.80
2022-07-29T01:32:07.301Z,44.80
2022-07-29T01:34:52.923Z,44.80
2022-07-29T01:37:38.638Z,44.90
2022-07-29T01:40:05.710Z,44.90
2022-07-29T01:42:36.686Z,45.10
2022-07-29T01:45:12.573Z,45.10
2022-07-29T01:47:59.534Z,45.10
2022-07-29T01:50:28.020Z,45.40
2022-07-29T01:52:55.534Z,45.40
2022-07-29T01:55:23.262Z,45.50
2022-07-29T01:57:50.124Z,45.30
2022-07-29T02:00:17.311Z,45.00
2022-07-29T02:02:44.709Z,44.70
2022-07-29T02:05:11.791Z,44.40
2022-07-29T02:07:38.491Z,43.80
2022-07-29T02:10:05.423Z,43.80
2022-07-29T02:12:32.174Z,43.90
2022-07-29T02:14:59.543Z,44.20
2022-07-29T02:17:27.567Z,44.30
2022-07-29T02:19:57.808Z,44.50
2022-07-29T02:22:24.427Z,44.70
2022-07-29T02:24:51.370Z,44.80
2022-07-29T02:27:18.417Z,44.90
2022-07-29T02:29:45.282Z,45.00
2022-07-29T02:32:11.884Z,45.00
2022-07-29T02:34:38.984Z,45.00
2022-07-29T02:37:05.657Z,45.00
2022-07-29T02:39:32.335Z,45.00
2022-07-29T02:42:00.376Z,45.00
2022-07-29T02:44:31.256Z,45.00
2022-07-29T02:47:13.096Z,45.10
2022-07-29T02:49:41.820Z,45.20
2022-07-29T02:52:10.063Z,45.10
2022-07-29T02:54:47.928Z,45.40
2022-07-29T02:57:26.354Z,45.30
2022-07-29T02:59:53.062Z,45.10
2022-07-29T03:02:19.751Z,44.70
2022-07-29T03:04:46.519Z,44.30
2022-07-29T03:07:14.227Z,43.90
2022-07-29T03:09:42.736Z,44.10
2022-07-29T03:12:09.448Z,44.20
2022-07-29T03:14:36.189Z,44.30
2022-07-29T03:17:02.857Z,44.40
2022-07-29T03:19:29.521Z,44.60
2022-07-29T03:21:57.208Z,44.70
2022-07-29T03:24:30.996Z,44.80
2022-07-29T03:26:57.847Z,44.90
2022-07-29T03:29:24.800Z,44.90
2022-07-29T03:32:00.578Z,44.90
2022-07-29T03:34:29.359Z,44.80
2022-07-29T03:36:56.015Z,44.80
2022-07-29T03:39:23.045Z,44.50
2022-07-29T03:41:50.715Z,44.80
2022-07-29T03:44:17.834Z,45.00
2022-07-29T03:46:44.889Z,45.10
2022-07-29T03:49:15.201Z,45.50
2022-07-29T03:51:42.373Z,46.20
2022-07-29T03:54:10.337Z,47.20
2022-07-29T03:56:38.854Z,46.90
2022-07-29T03:59:05.521Z,47.10
2022-07-29T04:01:33.430Z,47.20
2022-07-29T04:04:00.655Z,47.70
2022-07-29T04:06:27.450Z,47.90
2022-07-29T04:08:54.145Z,47.80
2022-07-29T04:11:20.870Z,48.00
2022-07-29T04:13:47.511Z,48.50
2022-07-29T04:16:14.281Z,48.10
2022-07-29T04:18:40.931Z,48.20
2022-07-29T04:21:07.809Z,49.00
2022-07-29T04:23:34.507Z,48.70
2022-07-29T04:26:02.152Z,48.60
2022-07-29T04:28:29.102Z,48.50
2022-07-29T04:30:56.102Z,48.50
2022-07-29T04:33:22.764Z,49.30
2022-07-29T04:35:52.447Z,49.20
2022-07-29T04:38:21.648Z,48.50
2022-07-29T04:40:49.614Z,48.70
2022-07-29T04:43:22.411Z,49.60
2022-07-29T04:45:49.484Z,49.40
2022-07-29T04:48:16.128Z,49.10
2022-07-29T04:50:43.137Z,48.50
2022-07-29T04:53:09.875Z,48.30
2022-07-29T04:55:39.031Z,48.10
2022-07-29T04:58:05.849Z,48.00
2022-07-29T05:00:33.485Z,47.40
2022-07-29T05:03:00.568Z,46.80
2022-07-29T05:05:27.711Z,46.80
2022-07-29T05:07:54.477Z,47.30
2022-07-29T05:10:21.169Z,47.30
2022-07-29T05:12:48.152Z,47.40
2022-07-29T05:15:14.989Z,48.00
2022-07-29T05:17:41.693Z,47.40
2022-07-29T05:20:08.711Z,47.60
2022-07-29T05:22:35.405Z,47.40
2022-07-29T05:25:06.979Z,47.20
2022-07-29T05:27:36.154Z,47.20
2022-07-29T05:30:09.438Z,47.10
2022-07-29T05:32:36.081Z,47.00
2022-07-29T05:35:02.744Z,47.00
2022-07-29T05:37:29.396Z,46.90
2022-07-29T05:39:56.749Z,46.90
2022-07-29T05:42:24.769Z,46.90
2022-07-29T05:44:51.837Z,46.70
2022-07-29T05:47:18.628Z,46.50
2022-07-29T05:49:45.360Z,46.20
2022-07-29T05:52:12.045Z,45.90
2022-07-29T05:54:38.712Z,45.70
2022-07-29T05:57:06.355Z,45.70
2022-07-29T05:59:36.479Z,46.30
2022-07-29T06:02:03.165Z,46.00
2022-07-29T06:04:29.850Z,46.00
2022-07-29T06:06:56.578Z,46.00
2022-07-29T06:09:23.963Z,46.10
2022-07-29T06:11:50.820Z,46.20
2022-07-29T06:14:17.887Z,46.40
2022-07-29T06:16:44.825Z,46.40
2022-07-29T06:19:11.482Z,46.50
2022-07-29T06:21:42.273Z,46.50
2022-07-29T06:24:09.087Z,46.60
2022-07-29T06:26:39.731Z,46.60
2022-07-29T06:29:07.190Z,46.60
2022-07-29T06:31:34.093Z,46.60
2022-07-29T06:34:00.768Z,46.70
2022-07-29T06:36:28.042Z,46.70
2022-07-29T06:38:54.717Z,46.70
2022-07-29T06:41:24.096Z,46.30
2022-07-29T06:43:55.258Z,46.10
2022-07-29T06:46:23.806Z,46.30
2022-07-29T06:48:50.937Z,45.60
2022-07-29T06:51:22.541Z,45.50
2022-07-29T06:54:00.306Z,46.00
2022-07-29T06:56:30.694Z,45.60
2022-07-29T06:58:57.345Z,45.60
2022-07-29T07:01:24.077Z,45.70
2022-07-29T07:03:50.833Z,45.80
2022-07-29T07:06:17.689Z,46.00
2022-07-29T07:08:44.749Z,46.00
2022-07-29T07:11:11.390Z,46.20
2022-07-29T07:13:38.089Z,46.20
2022-07-29T07:16:05.014Z,46.30
2022-07-29T07:18:31.666Z,46.40
2022-07-29T07:20:58.398Z,46.40
2022-07-29T07:23:28.090Z,46.50
2022-07-29T07:25:54.733Z,46.50
2022-07-29T07:28:24.631Z,46.60
2022-07-29T07:30:52.160Z,46.60
2022-07-29T07:33:19.006Z,46.40
2022-07-29T07:35:45.691Z,46.20
2022-07-29T07:38:12.383Z,46.00
2022-07-29T07:40:39.210Z,45.60
2022-07-29T07:43:05.884Z,45.40
2022-07-29T07:45:34.039Z,45.30
2022-07-29T07:48:00.902Z,45.40
2022-07-29T07:50:27.667Z,45.50
2022-07-29T07:52:55.954Z,45.70
2022-07-29T07:55:22.577Z,45.80
2022-07-29T07:57:49.292Z,46.00
2022-07-29T08:00:16.297Z,45.90
2022-07-29T08:02:43.969Z,46.20
2022-07-29T08:05:12.788Z,46.20
2022-07-29T08:07:39.760Z,46.20
2022-07-29T08:10:06.768Z,46.30
2022-07-29T08:12:33.425Z,46.30
2022-07-29T08:15:00.760Z,46.50
2022-07-29T08:17:27.719Z,46.60
2022-07-29T08:19:54.417Z,46.60
2022-07-29T08:22:21.093Z,46.60
2022-07-29T08:24:53.455Z,46.60
2022-07-29T08:27:42.488Z,46.70
2022-07-29T08:30:09.186Z,46.60
2022-07-29T08:59:41.158Z,46.40
2022-07-29T09:02:09.650Z,46.60
2022-07-29T09:04:36.545Z,46.70
2022-07-29T09:07:04.381Z,46.70
2022-07-29T09:09:31.042Z,46.90
2022-07-29T09:11:58.032Z,46.90
2022-07-29T09:14:25.046Z,47.00
2022-07-29T09:16:54.065Z,47.00
2022-07-29T09:19:31.125Z,47.00
2022-07-29T09:22:03.710Z,47.00
2022-07-29T09:24:39.073Z,47.00
2022-07-29T09:27:10.841Z,46.70
2022-07-29T09:29:38.334Z,46.40
2022-07-29T09:32:06.946Z,46.40
2022-07-29T09:34:33.787Z,46.10
2022-07-29T09:37:00.449Z,46.10
2022-07-29T09:39:30.297Z,46.20
2022-07-29T09:41:58.248Z,46.60
2022-07-29T09:44:25.029Z,46.70
2022-07-29T09:46:54.942Z,47.30
2022-07-29T09:49:21.863Z,47.20
2022-07-29T09:51:48.633Z,47.30
2022-07-29T09:54:25.064Z,47.30
2022-07-29T09:56:51.740Z,47.40
2022-07-29T09:59:18.466Z,47.40
2022-07-29T10:01:45.177Z,47.20
2022-07-29T10:04:11.839Z,47.40
2022-07-29T10:07:03.589Z,47.40
2022-07-29T10:09:31.287Z,47.40
2022-07-29T10:12:08.992Z,47.20
2022-07-29T10:14:38.735Z,47.30
2022-07-29T10:17:05.881Z,46.60
2022-07-29T10:19:32.791Z,46.30
2022-07-29T10:22:00.064Z,46.10
2022-07-29T10:24:27.726Z,46.10
2022-07-29T10:26:57.819Z,46.30
2022-07-29T10:29:24.738Z,46.40
2022-07-29T10:31:58.529Z,46.60
2022-07-29T10:34:50.291Z,46.70
2022-07-29T10:37:23.291Z,46.80
2022-07-29T10:39:53.695Z,47.00
2022-07-29T10:42:29.597Z,47.10
2022-07-29T10:45:04.410Z,47.20
2022-07-29T10:47:31.691Z,47.20
2022-07-29T10:50:02.494Z,47.30
2022-07-29T10:52:48.140Z,47.20
2022-07-29T10:55:43.741Z,47.10
2022-07-29T10:58:19.030Z,46.80
2022-07-29T11:00:46.678Z,46.60
2022-07-29T11:03:36.899Z,46.20
2022-07-29T11:06:08.615Z,46.20
2022-07-29T11:08:35.601Z,46.80
2022-07-29T11:11:22.275Z,46.40
2022-07-29T11:13:51.442Z,46.60
2022-07-29T11:16:20.148Z,46.80
2022-07-29T11:19:06.713Z,46.90
2022-07-29T11:21:55.346Z,47.20
2022-07-29T11:24:30.270Z,47.20
2022-07-29T11:27:09.603Z,47.40
2022-07-29T11:29:39.993Z,47.40
2022-07-29T11:32:10.853Z,47.50
2022-07-29T11:34:45.110Z,47.50
2022-07-29T11:37:14.937Z,47.30
2022-07-29T11:39:45.589Z,47.00
2022-07-29T11:42:28.156Z,46.80
2022-07-29T11:45:42.976Z,46.60
2022-07-29T11:48:05.246Z,46.50
2022-07-29T11:50:45.856Z,46.60
2022-07-29T11:53:15.002Z,46.60
2022-07-29T11:55:50.909Z,46.80
2022-07-29T11:58:28.052Z,47.10
2022-07-29T12:00:55.647Z,47.20
2022-07-29T12:03:33.397Z,47.40
2022-07-29T12:06:03.649Z,47.70
2022-07-29T12:08:30.462Z,47.50
2022-07-29T12:10:57.215Z,47.60
2022-07-29T12:13:37.833Z,48.30
2022-07-29T12:16:05.061Z,47.50
2022-07-29T12:18:32.467Z,47.40
2022-07-29T12:21:05.187Z,47.00
2022-07-29T12:23:35.004Z,46.80
2022-07-29T12:26:05.037Z,46.60
2022-07-29T12:28:38.129Z,47.10
2022-07-29T12:31:04.833Z,46.60
2022-07-29T12:33:32.474Z,46.70
2022-07-29T12:36:09.415Z,46.90
2022-07-29T12:38:37.263Z,47.00
2022-07-29T12:41:04.966Z,47.20
2022-07-29T12:43:31.856Z,47.40
2022-07-29T12:45:58.627Z,47.50
2022-07-29T12:48:41.483Z,47.50
2022-07-29T12:51:09.694Z,47.70
2022-07-29T12:53:39.375Z,47.70
2022-07-29T12:56:20.586Z,47.70
2022-07-29T12:58:53.022Z,47.50
2022-07-29T13:01:21.060Z,47.30
2022-07-29T13:03:59.746Z,47.00
2022-07-29T13:06:29.767Z,46.80
2022-07-29T13:09:00.131Z,46.60
2022-07-29T13:11:34.265Z,46.70
2022-07-29T13:14:06.648Z,46.80
2022-07-29T13:16:34.035Z,46.90
2022-07-29T13:19:13.238Z,47.10
2022-07-29T13:21:40.072Z,47.20
2022-07-29T13:24:07.218Z,47.40
2022-07-29T13:26:34.026Z,47.50
2022-07-29T13:29:00.709Z,47.50
2022-07-29T13:31:27.404Z,47.70
2022-07-29T13:33:54.081Z,47.80
2022-07-29T13:36:21.395Z,47.80
2022-07-29T13:38:48.040Z,47.80
2022-07-29T13:41:14.735Z,47.50
2022-07-29T13:43:41.416Z,47.40
2022-07-29T13:46:08.099Z,47.00
2022-07-29T13:48:34.908Z,46.90
2022-07-29T13:51:01.762Z,46.90
2022-07-29T13:53:29.634Z,47.00
2022-07-29T13:55:56.311Z,47.10
2022-07-29T13:58:23.055Z,47.40
2022-07-29T14:00:49.760Z,47.40
2022-07-29T14:03:16.553Z,47.60
2022-07-29T14:05:43.241Z,47.60
2022-07-29T14:08:09.896Z,47.80
2022-07-29T14:10:36.560Z,47.90
2022-07-29T14:13:03.420Z,47.90
2022-07-29T14:15:30.111Z,48.10
2022-07-29T14:17:56.799Z,48.00
2022-07-29T14:20:23.643Z,47.80
2022-07-29T14:22:50.361Z,47.60
2022-07-29T14:25:17.018Z,47.20
2022-07-29T14:27:44.215Z,46.90
2022-07-29T14:30:11.181Z,46.90
2022-07-29T14:32:37.897Z,46.90
2022-07-29T14:35:05.179Z,47.00
2022-07-29T14:37:37.686Z,47.30
2022-07-29T14:40:07.565Z,47.60
2022-07-29T14:42:34.261Z,47.60
2022-07-29T14:45:01.224Z,47.80
2022-07-29T14:47:27.914Z,47.90
2022-07-29T14:49:54.687Z,48.00
2022-07-29T14:52:21.489Z,48.00
2022-07-29T14:54:48.147Z,48.10
2022-07-29T14:57:14.809Z,48.10
2022-07-29T14:59:41.506Z,47.90
2022-07-29T15:02:08.216Z,47.70
2022-07-29T15:04:38.337Z,47.50
2022-07-29T15:07:05.155Z,47.20
2022-07-29T15:09:33.177Z,47.80
2022-07-29T15:12:07.307Z,47.30
2022-07-29T15:14:34.101Z,47.30
2022-07-29T15:17:01.246Z,47.50
2022-07-29T15:19:31.385Z,47.60
2022-07-29T15:21:59.690Z,48.20
2022-07-29T15:24:26.669Z,48.10
2022-07-29T15:26:53.434Z,48.30
2022-07-29T15:29:20.129Z,48.30
2022-07-29T15:31:46.878Z,48.40
2022-07-29T15:34:13.637Z,48.60
2022-07-29T15:36:55.760Z,48.80
2022-07-29T15:39:22.908Z,49.10
2022-07-29T15:41:49.778Z,49.30
2022-07-29T15:44:16.460Z,49.60
2022-07-29T15:47:06.909Z,49.30
2022-07-29T15:50:01.922Z,49.40
2022-07-29T15:52:30.200Z,49.00
2022-07-29T15:55:07.992Z,50.00
2022-07-29T15:57:45.680Z,48.80
2022-07-29T16:00:29.663Z,49.10
2022-07-29T16:02:59.216Z,49.70
2022-07-29T16:05:29.602Z,49.90
2022-07-29T16:07:57.427Z,50.20
2022-07-29T16:10:25.557Z,50.30
2022-07-29T16:12:52.933Z,50.20
2022-07-29T16:15:20.247Z,50.30
2022-07-29T16:17:50.564Z,51.10
2022-07-29T16:20:23.074Z,50.60
2022-07-29T16:22:51.776Z,50.60
2022-07-29T16:25:19.281Z,50.20
2022-07-29T16:27:46.965Z,50.00
2022-07-29T16:30:14.572Z,49.80
2022-07-29T16:32:41.839Z,49.50
2022-07-29T16:35:10.371Z,49.20
2022-07-29T16:37:39.745Z,49.40
2022-07-29T16:40:07.254Z,50.10
2022-07-29T16:42:47.202Z,53.60
2022-07-29T16:45:15.185Z,55.30
2022-07-29T16:47:42.509Z,56.20
2022-07-29T16:50:09.492Z,57.40
2022-07-29T16:52:37.599Z,58.10
2022-07-29T16:55:04.437Z,58.70
2022-07-29T16:57:31.101Z,59.40
2022-07-29T16:59:57.937Z,59.40
2022-07-29T17:02:24.834Z,59.90
2022-07-29T17:04:52.244Z,60.60
2022-07-29T17:07:21.697Z,59.60
2022-07-29T17:09:53.837Z,59.30
2022-07-29T17:12:26.246Z,58.70
2022-07-29T17:14:53.675Z,59.50
2022-07-29T17:17:38.849Z,60.50
2022-07-29T17:20:09.702Z,60.90
2022-07-29T17:22:37.926Z,61.20
2022-07-29T17:25:05.371Z,61.90
2022-07-29T17:27:34.449Z,62.50
2022-07-29T17:30:18.594Z,62.70
2022-07-29T17:32:47.221Z,62.90
2022-07-29T17:35:34.039Z,63.50
2022-07-29T17:38:01.403Z,63.90
2022-07-29T17:40:28.623Z,63.80
2022-07-29T17:42:55.994Z,63.90
2022-07-29T17:45:23.505Z,64.80
2022-07-29T17:47:51.763Z,64.60
2022-07-29T17:50:19.194Z,64.30
2022-07-29T17:52:46.630Z,64.40
2022-07-29T17:55:14.476Z,64.80
2022-07-29T17:57:42.217Z,65.30
2022-07-29T18:00:10.523Z,65.40
2022-07-29T18:02:38.049Z,66.40
2022-07-29T18:05:06.159Z,66.30
2022-07-29T18:07:34.241Z,66.60
2022-07-29T18:10:02.004Z,67.10
2022-07-29T18:12:29.722Z,67.40
2022-07-29T18:14:57.019Z,67.90
2022-07-29T18:17:52.677Z,68.10
2022-07-29T18:20:11.181Z,68.70
2022-07-29T18:22:38.481Z,68.90
2022-07-29T18:25:07.446Z,68.90
2022-07-29T18:27:34.275Z,68.70
2022-07-29T18:30:04.582Z,68.90
2022-07-29T18:32:31.868Z,69.40
2022-07-29T18:35:02.512Z,69.00
2022-07-29T18:38:01.579Z,69.10
2022-07-29T18:40:15.976Z,68.60
2022-07-29T18:42:42.681Z,68.50
2022-07-29T18:45:14.774Z,68.20
2022-07-29T18:47:47.595Z,68.80
2022-07-29T18:50:14.746Z,68.90
2022-07-29T18:52:41.721Z,68.40
2022-07-29T18:55:08.582Z,69.00
2022-07-29T18:57:55.181Z,68.90
2022-07-29T19:00:22.761Z,69.10
2022-07-29T19:02:50.017Z,69.40
2022-07-29T19:05:16.806Z,70.10
2022-07-29T19:07:43.550Z,69.60
2022-07-29T19:10:10.339Z,69.90
2022-07-29T19:12:37.091Z,70.10
2022-07-29T19:15:03.940Z,70.10
2022-07-29T19:17:30.648Z,70.60
2022-07-29T19:19:57.338Z,69.90
2022-07-29T19:22:24.175Z,70.60
2022-07-29T19:24:51.029Z,70.60
2022-07-29T19:27:17.811Z,70.50
2022-07-29T19:29:44.520Z,70.10
2022-07-29T19:32:11.380Z,69.50
2022-07-29T19:34:38.404Z,69.50
2022-07-29T19:37:05.389Z,69.10
2022-07-29T19:39:35.180Z,69.40
2022-07-29T19:42:03.488Z,69.70
2022-07-29T19:44:33.434Z,70.00
2022-07-29T19:47:00.977Z,70.20
2022-07-29T19:49:27.967Z,70.70
2022-07-29T19:51:54.694Z,71.00
2022-07-29T19:54:21.535Z,70.90
2022-07-29T19:56:48.312Z,69.40
2022-07-29T19:59:23.929Z,68.60
2022-07-29T20:01:51.503Z,67.80
2022-07-29T20:04:18.229Z,66.80
2022-07-29T20:06:45.204Z,66.20
2022-07-29T20:09:16.848Z,65.70
2022-07-29T20:11:47.377Z,65.10
2022-07-29T20:14:14.053Z,64.60
2022-07-29T20:16:40.735Z,64.40
2022-07-29T20:19:07.406Z,64.10
2022-07-29T20:21:34.090Z,63.60
2022-07-29T20:24:02.411Z,62.90
2022-07-29T20:26:29.156Z,62.40
2022-07-29T20:28:55.877Z,62.10
2022-07-29T20:31:22.807Z,61.60
2022-07-29T20:33:49.682Z,61.10
2022-07-29T20:36:16.470Z,61.30
2022-07-29T20:38:43.173Z,61.30
2022-07-29T20:41:10.023Z,61.40
2022-07-29T20:43:39.276Z,61.40
2022-07-29T20:46:08.239Z,61.30
2022-07-29T20:48:44.599Z,61.20
2022-07-29T20:51:12.408Z,61.40
2022-07-29T20:53:47.423Z,61.50
2022-07-29T20:56:14.261Z,61.40
2022-07-29T20:58:42.262Z,62.10
2022-07-29T21:01:10.239Z,61.30
2022-07-29T21:03:37.701Z,61.20
2022-07-29T21:06:11.817Z,61.30
2022-07-29T21:08:40.443Z,61.10
2022-07-29T21:11:44.038Z,61.20
2022-07-29T21:14:20.221Z,61.10
2022-07-29T21:16:49.401Z,60.40
2022-07-29T21:19:19.302Z,60.20
2022-07-29T21:21:49.352Z,59.90
2022-07-29T21:24:16.139Z,59.70
2022-07-29T21:26:47.268Z,59.70
2022-07-29T21:29:21.250Z,59.60
2022-07-29T21:31:48.059Z,59.70
2022-07-29T21:34:15.523Z,59.70
2022-07-29T21:36:58.599Z,59.70
2022-07-29T21:39:25.326Z,59.80
2022-07-29T21:41:52.078Z,59.90
2022-07-29T21:44:20.980Z,59.90
2022-07-29T21:46:47.724Z,60.00
2022-07-29T21:49:14.614Z,60.00
2022-07-29T21:51:41.390Z,60.00
2022-07-29T21:54:08.075Z,60.10
2022-07-29T21:56:35.250Z,60.20
2022-07-29T21:59:02.982Z,60.10
2022-07-29T22:01:29.697Z,60.20
2022-07-29T22:04:06.264Z,60.20
2022-07-29T22:06:34.584Z,60.20
2022-07-29T22:09:01.262Z,59.80
2022-07-29T22:11:28.066Z,59.60
2022-07-29T22:13:54.769Z,59.40
2022-07-29T22:16:21.472Z,59.20
2022-07-29T22:18:48.825Z,59.20
2022-07-29T22:21:15.616Z,59.20
2022-07-29T22:23:42.296Z,59.40
2022-07-29T22:26:08.965Z,59.40
2022-07-29T22:28:35.728Z,59.50
2022-07-29T22:31:02.448Z,59.60
2022-07-29T22:33:29.208Z,59.50
2022-07-29T22:35:55.886Z,59.60
2022-07-29T22:38:22.532Z,59.60
2022-07-29T22:40:51.195Z,59.70
2022-07-29T22:43:17.922Z,59.80
2022-07-29T22:45:44.761Z,59.80
2022-07-29T22:48:11.548Z,59.80
2022-07-29T22:50:38.921Z,59.80
2022-07-29T22:53:05.602Z,59.80
2022-07-29T22:55:32.411Z,59.90
2022-07-29T22:57:59.121Z,59.50
2022-07-29T23:00:25.893Z,59.40
2022-07-29T23:02:52.586Z,59.10
2022-07-29T23:05:19.395Z,58.90
2022-07-29T23:07:46.082Z,58.70
2022-07-29T23:10:12.782Z,58.70
2022-07-29T23:12:39.467Z,58.80
2022-07-29T23:15:06.324Z,58.80
2022-07-29T23:17:36.652Z,58.90
2022-07-29T23:20:05.030Z,59.00
2022-07-29T23:22:31.700Z,59.10
2022-07-29T23:24:58.379Z,59.10
2022-07-29T23:27:25.571Z,59.20
2022-07-29T23:29:52.277Z,59.20
2022-07-29T23:32:18.979Z,59.30
2022-07-29T23:34:45.649Z,59.30
2022-07-29T23:37:12.415Z,59.30
2022-07-29T23:39:39.145Z,59.40
2022-07-29T23:42:05.905Z,59.40
2022-07-29T23:44:32.584Z,59.40
2022-07-29T23:46:59.502Z,59.50
2022-07-29T23:49:26.751Z,59.50
2022-07-29T23:51:53.437Z,59.50
2022-07-29T23:54:20.132Z,59.10
2022-07-29T23:56:46.806Z,59.00
2022-07-29T23:59:13.465Z,58.80
